createdAt,value
2017-10-17T00:02:20.843Z,99.90
2017-10-17T00:04:47.736Z,99.90
2017-10-17T00:07:13.829Z,99.90
2017-10-17T00:09:39.917Z,99.90
2017-10-17T00:12:06.062Z,99.90
2017-10-17T00:14:32.136Z,99.90
2017-10-17T00:16:58.237Z,99.90
2017-10-17T00:19:24.312Z,99.90
2017-10-17T00:21:50.423Z,99.90
2017-10-17T00:24:16.527Z,99.90
2017-10-17T00:26:42.600Z,99.90
2017-10-17T00:29:08.673Z,99.90
2017-10-17T00:31:35.521Z,99.90
2017-10-17T00:34:02.390Z,99.90
2017-10-17T00:36:29.281Z,99.90
2017-10-17T00:38:55.384Z,99.90
2017-10-17T00:41:22.201Z,99.90
2017-10-17T00:43:48.296Z,99.90
2017-10-17T00:46:15.284Z,99.90
2017-10-17T00:48:41.497Z,99.90
2017-10-17T00:51:26.353Z,99.90
2017-10-17T00:53:53.163Z,99.90
2017-10-17T00:56:19.271Z,99.90
2017-10-17T00:58:45.384Z,99.90
2017-10-17T01:01:12.313Z,99.90
2017-10-17T01:03:38.381Z,99.90
2017-10-17T01:06:05.229Z,99.90
2017-10-17T01:08:32.097Z,99.90
2017-10-17T01:10:58.188Z,99.90
2017-10-17T01:13:24.349Z,99.90
2017-10-17T01:15:50.425Z,99.90
2017-10-17T01:18:16.496Z,99.90
2017-10-17T01:20:46.433Z,99.90
2017-10-17T01:23:12.506Z,99.90
2017-10-17T01:25:40.193Z,99.90
2017-10-17T01:28:12.156Z,99.90
2017-10-17T01:30:38.981Z,99.90
2017-10-17T01:33:05.809Z,99.90
2017-10-17T01:35:31.946Z,99.90
2017-10-17T01:37:59.009Z,99.90
2017-10-17T01:40:28.037Z,99.90
2017-10-17T01:42:54.210Z,99.90
2017-10-17T01:45:23.081Z,99.90
2017-10-17T01:47:50.171Z,99.90
2017-10-17T01:50:17.038Z,99.90
2017-10-17T01:55:49.486Z,99.90
2017-10-17T01:58:16.563Z,99.90
2017-10-17T02:00:42.636Z,99.90
2017-10-17T02:03:09.485Z,99.90
2017-10-17T02:05:35.582Z,99.90
2017-10-17T02:08:01.686Z,99.90
2017-10-17T02:10:28.539Z,99.90
2017-10-17T02:12:57.225Z,99.90
2017-10-17T02:15:24.101Z,99.90
2017-10-17T02:20:57.657Z,99.90
2017-10-17T02:23:23.756Z,99.90
2017-10-17T02:25:50.657Z,99.90
2017-10-17T02:28:20.577Z,99.90
2017-10-17T02:30:54.517Z,99.90
2017-10-17T02:33:22.450Z,99.90
2017-10-17T02:35:49.297Z,99.90
2017-10-17T02:38:16.213Z,99.90
2017-10-17T02:40:42.289Z,99.90
2017-10-17T02:43:12.346Z,99.90
2017-10-17T02:45:38.441Z,99.90
2017-10-17T02:48:10.387Z,99.90
2017-10-17T02:50:36.461Z,99.90
2017-10-17T02:53:02.563Z,99.90
2017-10-17T02:55:28.638Z,99.90
2017-10-17T02:57:54.720Z,99.80
2017-10-17T03:00:20.817Z,99.10
2017-10-17T03:02:47.765Z,99.50
2017-10-17T03:05:14.730Z,99.20
2017-10-17T03:07:40.821Z,99.90
2017-10-17T03:10:06.905Z,99.20
2017-10-17T03:12:32.974Z,99.90
2017-10-17T03:15:02.070Z,99.90
2017-10-17T03:17:28.877Z,99.90
2017-10-17T03:19:55.929Z,99.90
2017-10-17T03:22:22.032Z,99.90
2017-10-17T03:24:52.199Z,99.90
2017-10-17T03:27:18.256Z,99.90
2017-10-17T03:29:44.352Z,99.90
2017-10-17T03:32:10.448Z,99.90
2017-10-17T03:34:52.440Z,99.90
2017-10-17T03:40:38.188Z,99.90
2017-10-17T03:43:09.281Z,99.60
2017-10-17T03:45:35.340Z,99.90
2017-10-17T03:48:03.338Z,99.90
2017-10-17T03:50:33.337Z,99.90
2017-10-17T03:53:02.240Z,99.90
2017-10-17T03:55:28.336Z,99.90
2017-10-17T03:57:56.396Z,99.90
2017-10-17T04:00:22.470Z,99.90
2017-10-17T04:02:50.205Z,99.90
2017-10-17T04:05:32.223Z,99.90
2017-10-17T04:08:17.334Z,99.90
2017-10-17T04:10:48.403Z,99.90
2017-10-17T04:16:40.568Z,99.90
2017-10-17T04:19:16.592Z,99.90
2017-10-17T04:21:43.448Z,99.90
2017-10-17T04:24:12.360Z,99.90
2017-10-17T04:26:38.449Z,99.90
2017-10-17T04:29:13.212Z,99.90
2017-10-17T04:31:41.345Z,99.90
2017-10-17T04:37:16.076Z,99.90
2017-10-17T04:39:42.236Z,99.90
2017-10-17T04:42:20.648Z,99.90
2017-10-17T04:51:26.184Z,99.90
2017-10-17T04:57:01.035Z,99.90
2017-10-17T04:59:40.620Z,99.90
2017-10-17T05:02:10.555Z,99.90
2017-10-17T05:08:05.120Z,99.90
2017-10-17T05:10:48.112Z,99.90
2017-10-17T05:16:16.931Z,99.90
2017-10-17T05:18:50.576Z,99.90
2017-10-17T05:21:16.716Z,99.90
2017-10-17T05:23:54.620Z,99.90
2017-10-17T05:26:20.710Z,99.90
2017-10-17T05:28:50.843Z,99.90
2017-10-17T05:31:19.722Z,99.90
2017-10-17T05:33:49.765Z,99.90
2017-10-17T05:39:10.548Z,99.90
2017-10-17T05:41:37.432Z,99.90
2017-10-17T05:44:21.341Z,99.90
2017-10-17T05:46:47.440Z,99.90
2017-10-17T05:49:15.492Z,99.90
2017-10-17T05:51:41.588Z,99.90
2017-10-17T05:54:07.748Z,99.90
2017-10-17T05:56:33.846Z,99.90
2017-10-17T05:58:59.969Z,99.90
2017-10-17T06:01:26.041Z,99.90
2017-10-17T06:03:52.141Z,99.90
2017-10-17T06:06:18.262Z,99.90
2017-10-17T06:08:44.359Z,99.90
2017-10-17T06:11:10.474Z,99.90
2017-10-17T06:13:36.577Z,99.90
2017-10-17T06:16:02.711Z,99.90
2017-10-17T06:18:28.804Z,99.90
2017-10-17T06:20:54.913Z,99.90
2017-10-17T06:23:20.996Z,99.90
2017-10-17T06:25:47.084Z,99.60
2017-10-17T06:28:13.213Z,98.70
2017-10-17T06:30:39.285Z,99.90
2017-10-17T06:33:05.404Z,99.10
2017-10-17T06:35:31.544Z,99.60
2017-10-17T06:37:57.618Z,98.10
2017-10-17T06:40:23.739Z,97.90
2017-10-17T06:42:49.930Z,97.50
2017-10-17T06:45:16.009Z,97.40
2017-10-17T06:47:42.156Z,97.50
2017-10-17T06:50:08.256Z,96.10
2017-10-17T06:52:34.353Z,97.10
2017-10-17T06:55:01.177Z,96.60
2017-10-17T06:57:27.309Z,96.70
2017-10-17T06:59:53.429Z,96.40
2017-10-17T07:02:19.629Z,95.70
2017-10-17T07:04:46.547Z,93.60
2017-10-17T07:07:12.654Z,93.40
2017-10-17T07:09:38.842Z,92.90
2017-10-17T07:12:04.956Z,91.90
2017-10-17T07:14:31.028Z,91.30
2017-10-17T07:16:57.101Z,92.20
2017-10-17T07:19:23.200Z,91.70
2017-10-17T07:21:49.385Z,91.50
2017-10-17T07:24:15.512Z,91.50
2017-10-17T07:26:41.640Z,91.70
2017-10-17T07:29:07.715Z,91.10
2017-10-17T07:31:33.821Z,89.70
2017-10-17T07:33:59.913Z,90.60
2017-10-17T07:36:26.108Z,89.60
2017-10-17T07:38:52.189Z,89.40
2017-10-17T07:41:18.345Z,88.20
2017-10-17T07:43:52.092Z,82.60
2017-10-17T07:46:18.241Z,82.30
2017-10-17T07:48:44.320Z,77.30
2017-10-17T07:51:10.397Z,72.00
2017-10-17T07:53:36.505Z,71.50
2017-10-17T07:56:03.142Z,67.60
2017-10-17T07:58:29.288Z,66.70
2017-10-17T08:00:55.444Z,65.60
2017-10-17T08:03:22.374Z,58.90
2017-10-17T08:05:48.455Z,59.00
2017-10-17T08:08:15.299Z,57.20
2017-10-17T08:10:41.434Z,57.10
2017-10-17T08:13:08.271Z,54.90
2017-10-17T08:15:34.400Z,55.00
2017-10-17T08:18:00.619Z,57.70
2017-10-17T08:20:26.692Z,56.70
2017-10-17T08:22:52.790Z,55.90
2017-10-17T08:25:18.948Z,57.90
2017-10-17T08:27:45.074Z,59.60
2017-10-17T08:30:11.257Z,55.60
2017-10-17T08:32:38.161Z,52.80
2017-10-17T08:35:04.256Z,52.80
2017-10-17T08:37:31.100Z,55.70
2017-10-17T08:39:57.172Z,55.70
2017-10-17T08:42:23.637Z,52.30
2017-10-17T08:44:49.780Z,51.90
2017-10-17T08:47:15.888Z,49.20
2017-10-17T08:49:41.981Z,48.30
2017-10-17T08:52:08.204Z,49.90
2017-10-17T08:54:34.288Z,48.20
2017-10-17T08:57:00.390Z,48.20
2017-10-17T08:59:26.533Z,49.20
2017-10-17T09:01:52.671Z,49.50
2017-10-17T09:04:18.749Z,48.40
2017-10-17T09:06:44.868Z,49.50
2017-10-17T09:09:11.687Z,42.60
2017-10-17T09:11:37.762Z,42.60
2017-10-17T09:14:03.881Z,43.40
2017-10-17T09:16:30.037Z,47.40
2017-10-17T09:18:56.852Z,45.10
2017-10-17T09:21:22.993Z,45.10
2017-10-17T09:23:49.081Z,44.00
2017-10-17T09:26:15.144Z,41.10
2017-10-17T09:28:41.249Z,40.20
2017-10-17T09:31:08.060Z,39.30
2017-10-17T09:33:34.156Z,39.30
2017-10-17T09:36:00.272Z,39.10
2017-10-17T09:38:27.176Z,37.50
2017-10-17T09:40:53.264Z,37.50
2017-10-17T09:43:20.142Z,37.40
2017-10-17T09:45:46.280Z,37.40
2017-10-17T09:48:12.420Z,35.80
2017-10-17T09:50:38.557Z,35.90
2017-10-17T09:53:04.645Z,35.80
2017-10-17T09:55:30.736Z,35.50
2017-10-17T09:57:56.837Z,34.80
2017-10-17T10:00:22.997Z,34.80
2017-10-17T10:02:49.821Z,36.50
2017-10-17T10:05:15.925Z,36.60
2017-10-17T10:07:42.009Z,35.50
2017-10-17T10:10:08.102Z,36.40
2017-10-17T10:12:34.232Z,37.80
2017-10-17T10:15:00.312Z,36.90
2017-10-17T10:17:26.404Z,35.40
2017-10-17T10:19:52.554Z,34.20
2017-10-17T10:22:18.668Z,32.60
2017-10-17T10:24:44.753Z,35.50
2017-10-17T10:27:10.913Z,35.60
2017-10-17T10:29:37.768Z,34.70
2017-10-17T10:32:03.869Z,34.70
2017-10-17T10:34:30.001Z,34.40
2017-10-17T10:36:56.123Z,33.70
2017-10-17T10:39:22.305Z,33.00
2017-10-17T10:41:48.400Z,33.80
2017-10-17T10:44:14.488Z,34.40
2017-10-17T10:46:40.715Z,35.20
2017-10-17T10:49:06.791Z,34.60
2017-10-17T10:51:32.864Z,35.20
2017-10-17T10:53:58.964Z,35.40
2017-10-17T10:56:25.836Z,36.80
2017-10-17T10:58:51.901Z,36.80
2017-10-17T11:01:17.984Z,36.10
2017-10-17T11:03:44.809Z,34.50
2017-10-17T11:06:10.920Z,34.40
2017-10-17T11:08:37.015Z,34.40
2017-10-17T11:11:03.850Z,37.00
2017-10-17T11:13:31.170Z,37.00
2017-10-17T11:15:57.266Z,40.80
2017-10-17T11:18:23.333Z,38.00
2017-10-17T11:20:49.404Z,37.30
2017-10-17T11:23:15.465Z,36.40
2017-10-17T11:25:41.565Z,36.00
2017-10-17T11:28:07.624Z,35.70
2017-10-17T11:30:33.732Z,34.80
2017-10-17T11:32:59.813Z,34.30
2017-10-17T11:35:25.928Z,36.50
2017-10-17T11:37:52.001Z,38.20
2017-10-17T11:40:43.937Z,39.20
2017-10-17T11:43:22.326Z,39.20
2017-10-17T11:45:48.420Z,38.80
2017-10-17T11:48:15.325Z,40.80
2017-10-17T11:50:41.448Z,41.00
2017-10-17T11:53:07.509Z,39.80
2017-10-17T11:55:33.602Z,38.70
2017-10-17T11:57:59.716Z,40.10
2017-10-17T12:00:25.796Z,40.30
2017-10-17T12:02:51.900Z,38.10
2017-10-17T12:05:18.744Z,38.20
2017-10-17T12:07:44.846Z,38.90
2017-10-17T12:10:10.901Z,37.00
2017-10-17T12:12:36.996Z,36.40
2017-10-17T12:15:03.109Z,36.60
2017-10-17T12:17:29.956Z,36.10
2017-10-17T12:19:56.811Z,37.00
2017-10-17T12:22:23.669Z,36.70
2017-10-17T12:24:50.595Z,37.30
2017-10-17T12:27:16.745Z,37.20
2017-10-17T12:29:42.886Z,37.00
2017-10-17T12:32:08.977Z,37.80
2017-10-17T12:34:35.060Z,37.40
2017-10-17T12:37:01.185Z,38.30
2017-10-17T12:39:27.294Z,38.60
2017-10-17T12:41:53.382Z,38.60
2017-10-17T12:44:20.212Z,38.90
2017-10-17T12:46:46.616Z,38.60
2017-10-17T12:49:12.716Z,38.90
2017-10-17T12:51:38.789Z,40.80
2017-10-17T12:54:04.894Z,39.70
2017-10-17T12:56:31.727Z,41.10
2017-10-17T12:58:57.825Z,41.00
2017-10-17T13:01:23.926Z,39.50
2017-10-17T13:03:50.726Z,40.40
2017-10-17T13:06:16.834Z,40.40
2017-10-17T13:08:42.962Z,41.20
2017-10-17T13:11:09.824Z,40.30
2017-10-17T13:13:38.073Z,40.40
2017-10-17T13:16:04.164Z,40.60
2017-10-17T13:18:30.238Z,42.20
2017-10-17T13:20:56.302Z,41.90
2017-10-17T13:23:22.724Z,41.60
2017-10-17T13:25:48.824Z,41.30
2017-10-17T13:28:15.052Z,42.40
2017-10-17T13:30:41.180Z,42.60
2017-10-17T13:33:08.012Z,42.60
2017-10-17T13:35:34.098Z,42.60
2017-10-17T13:38:00.569Z,42.50
2017-10-17T13:40:26.717Z,42.90
2017-10-17T13:42:53.217Z,43.30
2017-10-17T13:45:19.351Z,43.40
2017-10-17T13:47:45.428Z,44.70
2017-10-17T13:50:11.535Z,46.50
2017-10-17T13:52:37.643Z,48.40
2017-10-17T13:55:04.469Z,48.50
2017-10-17T13:57:31.231Z,48.50
2017-10-17T13:59:57.568Z,49.60
2017-10-17T14:02:23.651Z,50.70
2017-10-17T14:04:49.759Z,50.90
2017-10-17T14:07:15.840Z,51.60
2017-10-17T14:09:41.916Z,52.40
2017-10-17T14:12:07.998Z,53.10
2017-10-17T14:14:34.892Z,53.60
2017-10-17T14:17:00.994Z,53.60
2017-10-17T14:19:27.807Z,54.30
2017-10-17T14:21:53.960Z,54.30
2017-10-17T14:24:20.020Z,54.90
2017-10-17T14:26:46.841Z,55.40
2017-10-17T14:29:12.949Z,55.40
2017-10-17T14:31:39.045Z,56.00
2017-10-17T14:34:05.880Z,56.70
2017-10-17T14:36:31.984Z,56.70
2017-10-17T14:38:58.146Z,56.80
2017-10-17T14:41:24.235Z,57.50
2017-10-17T14:43:50.333Z,57.70
2017-10-17T14:46:16.448Z,57.90
2017-10-17T14:48:42.934Z,58.40
2017-10-17T14:51:09.104Z,58.70
2017-10-17T14:53:35.192Z,59.20
2017-10-17T14:56:01.323Z,59.90
2017-10-17T14:58:27.461Z,60.30
2017-10-17T15:00:53.534Z,60.70
2017-10-17T15:03:19.629Z,61.30
2017-10-17T15:05:45.729Z,61.40
2017-10-17T15:08:11.813Z,61.60
2017-10-17T15:10:38.163Z,62.10
2017-10-17T15:13:04.315Z,62.40
2017-10-17T15:15:31.144Z,63.40
2017-10-17T15:17:57.262Z,63.40
2017-10-17T15:20:23.388Z,63.90
2017-10-17T15:22:49.443Z,64.60
2017-10-17T15:25:15.521Z,64.70
2017-10-17T15:27:41.613Z,65.00
2017-10-17T15:30:07.716Z,65.40
2017-10-17T15:32:33.900Z,65.70
2017-10-17T15:35:00.025Z,66.00
2017-10-17T15:37:26.139Z,66.50
2017-10-17T15:39:52.272Z,67.10
2017-10-17T15:42:18.412Z,67.50
2017-10-17T15:44:44.495Z,68.30
2017-10-17T15:47:10.736Z,69.00
2017-10-17T15:49:36.885Z,69.70
2017-10-17T15:52:03.096Z,70.70
2017-10-17T15:54:29.221Z,70.80
2017-10-17T15:56:55.387Z,71.40
2017-10-17T15:59:21.529Z,71.70
2017-10-17T16:01:47.656Z,71.80
2017-10-17T16:04:13.837Z,72.10
2017-10-17T16:06:40.676Z,72.00
2017-10-17T16:09:13.804Z,72.00
2017-10-17T16:11:40.654Z,72.30
2017-10-17T16:14:06.836Z,72.30
2017-10-17T16:16:33.298Z,73.10
2017-10-17T16:18:59.787Z,73.40
2017-10-17T16:21:27.775Z,74.60
2017-10-17T16:23:53.968Z,74.60
2017-10-17T16:26:20.085Z,74.90
2017-10-17T16:28:46.525Z,75.30
2017-10-17T16:31:12.639Z,75.40
2017-10-17T16:33:38.739Z,77.00
2017-10-17T16:36:05.501Z,78.30
2017-10-17T16:38:33.243Z,80.10
2017-10-17T16:40:59.361Z,80.90
2017-10-17T16:43:25.522Z,81.10
2017-10-17T16:48:49.602Z,82.60
2017-10-17T16:51:16.493Z,84.40
2017-10-17T16:53:42.752Z,84.40
2017-10-17T16:56:08.920Z,84.30
2017-10-17T16:58:35.036Z,83.50
2017-10-17T17:01:01.186Z,82.80
2017-10-17T17:03:27.409Z,82.40
2017-10-17T17:05:53.525Z,82.20
2017-10-17T17:08:19.680Z,82.20
2017-10-17T17:10:45.821Z,82.60
2017-10-17T17:13:12.016Z,82.80
2017-10-17T17:15:38.886Z,84.80
2017-10-17T17:18:04.968Z,85.60
2017-10-17T17:20:31.107Z,85.10
2017-10-17T17:22:57.212Z,84.90
2017-10-17T17:25:23.397Z,84.90
2017-10-17T17:27:49.509Z,85.60
2017-10-17T17:30:15.635Z,85.60
2017-10-17T17:32:41.812Z,85.70
2017-10-17T17:35:07.965Z,86.00
2017-10-17T17:37:34.802Z,87.80
2017-10-17T17:40:00.929Z,87.80
2017-10-17T17:42:27.120Z,88.80
2017-10-17T17:44:53.241Z,88.80
2017-10-17T17:47:19.328Z,89.20
2017-10-17T17:49:46.764Z,89.70
2017-10-17T17:52:13.716Z,86.90
2017-10-17T17:54:39.944Z,86.90
2017-10-17T17:57:06.836Z,87.50
2017-10-17T17:59:32.900Z,87.50
2017-10-17T18:01:58.976Z,87.90
2017-10-17T18:04:25.149Z,88.50
2017-10-17T18:06:51.307Z,88.30
2017-10-17T18:09:17.432Z,88.10
2017-10-17T18:11:43.537Z,87.80
2017-10-17T18:14:10.507Z,89.00
2017-10-17T18:16:37.013Z,89.00
2017-10-17T18:19:03.100Z,89.80
2017-10-17T18:21:29.273Z,90.50
2017-10-17T18:23:55.541Z,91.30
2017-10-17T18:26:21.690Z,91.90
2017-10-17T18:28:48.520Z,92.50
2017-10-17T18:31:14.616Z,92.50
2017-10-17T18:33:41.518Z,93.60
2017-10-17T18:36:07.611Z,93.60
2017-10-17T18:38:33.716Z,94.50
2017-10-17T18:40:59.784Z,95.30
2017-10-17T18:43:25.971Z,96.80
2017-10-17T18:45:52.078Z,97.70
2017-10-17T18:48:18.189Z,98.50
2017-10-17T18:50:44.369Z,98.70
2017-10-17T18:53:10.444Z,99.00
2017-10-17T18:55:36.836Z,99.10
2017-10-17T18:58:03.036Z,99.80
2017-10-17T19:00:29.118Z,99.90
2017-10-17T19:02:55.985Z,99.90
2017-10-17T19:05:22.328Z,99.90
2017-10-17T19:07:48.416Z,99.90
2017-10-17T19:10:14.508Z,99.90
2017-10-17T19:12:40.634Z,99.90
2017-10-17T19:15:06.738Z,99.90
2017-10-17T19:17:32.851Z,99.90
2017-10-17T19:19:59.001Z,99.90
2017-10-17T19:22:25.137Z,99.90
2017-10-17T19:24:51.544Z,99.90
2017-10-17T19:27:17.614Z,99.90
2017-10-17T19:29:43.777Z,99.90
2017-10-17T19:32:10.275Z,99.90
2017-10-17T19:34:36.362Z,99.90
2017-10-17T19:37:02.468Z,99.90
2017-10-17T19:39:28.596Z,99.90
2017-10-17T19:41:54.676Z,99.90
2017-10-17T19:44:20.747Z,99.90
2017-10-17T19:46:46.882Z,99.90
2017-10-17T19:49:12.956Z,99.90
2017-10-17T19:51:39.023Z,99.90
2017-10-17T19:54:05.112Z,99.90
2017-10-17T19:56:31.216Z,99.90
2017-10-17T19:58:58.217Z,99.90
2017-10-17T20:01:24.315Z,99.90
2017-10-17T20:03:51.140Z,99.90
2017-10-17T20:06:17.207Z,99.90
2017-10-17T20:08:44.052Z,99.90
2017-10-17T20:11:10.898Z,99.90
2017-10-17T20:13:36.972Z,99.90
2017-10-17T20:16:03.073Z,99.90
2017-10-17T20:18:29.934Z,99.90
2017-10-17T20:20:56.141Z,99.90
2017-10-17T20:23:22.250Z,99.90
2017-10-17T20:25:48.344Z,99.90
2017-10-17T20:28:14.607Z,99.90
2017-10-17T20:30:40.712Z,99.90
2017-10-17T20:33:06.954Z,99.90
2017-10-17T20:35:33.017Z,99.90
2017-10-17T20:37:59.860Z,99.90
2017-10-17T20:40:25.962Z,99.90
2017-10-17T20:42:52.087Z,99.90
2017-10-17T20:45:18.200Z,99.90
2017-10-17T20:47:44.288Z,99.90
2017-10-17T20:50:10.361Z,99.90
2017-10-17T20:52:37.205Z,99.90
2017-10-17T20:55:03.344Z,99.90
2017-10-17T20:57:30.224Z,99.90
2017-10-17T20:59:56.336Z,99.90
2017-10-17T21:02:23.289Z,99.90
2017-10-17T21:04:50.112Z,99.90
2017-10-17T21:07:16.233Z,99.90
2017-10-17T21:09:42.313Z,99.90
2017-10-17T21:12:08.500Z,99.90
2017-10-17T21:14:34.624Z,99.90
2017-10-17T21:17:00.688Z,99.90
2017-10-17T21:19:26.769Z,99.90
2017-10-17T21:21:52.973Z,99.90
2017-10-17T21:24:19.079Z,99.90
2017-10-17T21:26:45.157Z,99.90
2017-10-17T21:29:11.245Z,99.90
2017-10-17T21:31:38.122Z,99.90
2017-10-17T21:34:04.231Z,99.90
2017-10-17T21:36:31.089Z,99.90
2017-10-17T21:38:57.993Z,99.90
2017-10-17T21:41:24.092Z,99.90
2017-10-17T21:43:50.212Z,99.90
2017-10-17T21:46:17.024Z,99.90
2017-10-17T21:48:43.136Z,99.90
2017-10-17T21:51:09.256Z,99.90
2017-10-17T21:53:36.059Z,99.90
2017-10-17T21:56:02.149Z,99.90
2017-10-17T21:58:29.021Z,99.90
2017-10-17T22:01:01.148Z,99.90
2017-10-17T22:03:27.360Z,99.90
2017-10-17T22:05:53.804Z,99.90
2017-10-17T22:08:19.892Z,99.90
2017-10-17T22:10:46.725Z,99.90
2017-10-17T22:13:12.922Z,99.90
2017-10-17T22:15:39.032Z,99.90
2017-10-17T22:18:05.986Z,99.90
2017-10-17T22:20:32.878Z,99.90
2017-10-17T22:22:59.065Z,99.90
2017-10-17T22:25:25.329Z,99.90
2017-10-17T22:27:52.274Z,99.90
2017-10-17T22:30:18.546Z,99.90
2017-10-17T22:32:44.702Z,99.90
2017-10-17T22:35:10.865Z,99.90
2017-10-17T22:37:37.118Z,99.90
2017-10-17T22:40:04.076Z,99.90
2017-10-17T22:42:30.936Z,99.90
2017-10-17T22:44:57.290Z,99.90
2017-10-17T22:47:24.237Z,99.90
2017-10-17T22:49:50.438Z,99.90
2017-10-17T22:52:16.566Z,99.90
2017-10-17T22:54:42.721Z,99.90
2017-10-17T22:57:08.842Z,99.90
2017-10-17T22:59:35.005Z,99.90
2017-10-17T23:02:01.150Z,99.90
2017-10-17T23:04:27.260Z,99.90
2017-10-17T23:06:53.442Z,99.90
2017-10-17T23:09:19.649Z,99.90
2017-10-17T23:11:45.770Z,99.90
2017-10-17T23:14:11.919Z,99.90
2017-10-17T23:16:44.106Z,99.90
2017-10-17T23:19:22.689Z,99.90
2017-10-17T23:21:49.556Z,99.90
2017-10-17T23:24:16.433Z,99.90
2017-10-17T23:26:42.562Z,99.90
2017-10-17T23:29:08.721Z,99.90
2017-10-17T23:31:34.840Z,99.90
2017-10-17T23:34:00.990Z,99.90
2017-10-17T23:36:27.169Z,99.90
2017-10-17T23:38:53.255Z,99.90
2017-10-17T23:41:19.400Z,99.90
2017-10-17T23:43:45.538Z,99.90
2017-10-17T23:46:11.680Z,99.90
2017-10-17T23:48:37.818Z,99.90
2017-10-17T23:51:03.912Z,99.90
2017-10-17T23:53:30.090Z,99.90
2017-10-17T23:55:56.249Z,99.90
2017-10-17T23:58:22.401Z,99.90
